Airfield :
LOGIN :

Register | Disclaimer

   EN    FR    IT 

 










Legend :    VFR   Marginal VFR   IFR   Intensive IFR   Very Intensive IFR
Visi :
Ceiling :
>= 8 km
>= 3000ft
5 to 8 km
1000 to 3000 ft
1500m to 5 km
500 to 1000 ft
800 to 1500m
200 to 500 ft
< 800m
< 200 ft
Symbols :   Thunderstorms  Fog  Heavy snow  Heavy precipitations  Wind > 20 kt
SIGMETs :     Misc.  Thunderstorms  Icing  Turbulence  Mountain Waves  Volcanic Ashes






- Airport Elevation : 2001 ft
- IATA code : MAD


LEMD - Madrid

CURRENT METAR :
  • 191400Z VRB02KT CAVOK 06/00 Q1023 NOSIG

EXPIRED METARs :
  • 191330Z 00000KT CAVOK 05/M00 Q1023 NOSIG
  • 191300Z VRB02KT CAVOK 04/M01 Q1023 NOSIG
  • 191230Z VRB02KT CAVOK 03/M02 Q1024 NOSIG
  • 191200Z 30001KT CAVOK 01/M02 Q1024 NOSIG
  • 191130Z 00000KT CAVOK 01/M03 Q1025 NOSIG

TAF TAF LEMD
Valid from the 19 at 12:00 until the 20 at 18:00 UTC


191100Z 1912/2018 VRB02KT CAVOK TX09/1915Z TNM03/2002Z
PROB30
TEMPO 2000/2006 3000 BR
BECMG 2003/2005 OVC014
BECMG 2006/2008 18012KT
TEMPO 2006/2018 18014G25KT 4000 RA BKN012



MET'MAP, your aeronautical weather chart ! - Copyright ORBIFLY December 2007 - Disclaimer

ORBIFLY MET'MAP TEAM :

Programming & Development : Alexandra Zaïnal
Concept & original design : Baudouin d'Aumeries
Assistance for programming : Marc-Olivier Méhu
Technical & hardware support : Manuel Goepfert

Contact : metmap@orbifly.com




SOURCES & CREDITS :

   NOAA